Eastborough, Kansas
Current Conditions -  °F | °C
As of 11:58 PM on Monday 20 Oct 2014 (Local Time) from KIAB Reporting Station
Clear Clear  
Wind Chill: 58°   Ceiling: Unl
Heat Index: 58°   Visibility: 10mi
Dew Point: 46°   Wind: 3mph
Humidity: 64%   Direction: 70°ENE
Pressure: 30.08"   Gusts: NA
Location:  37.6676°N, 97.2266°W
Report Text: KIAB 210458Z AUTO 07003KT 10SM CLR 15/08 A3008 RMK AO2 SLP182 T01450078
Loading
Personal Weather Stations






























Interactive Weather Map
Tropical Storm Tracking
New forecast layout! Learn more

10-Day Weather Forecast

Advertisements
Track Severe Weather on mobile